createdAt,value
2023-04-10T00:01:00.555Z,99694.84
2023-04-10T00:03:47.570Z,99665.94
2023-04-10T00:06:34.281Z,99676.66
2023-04-10T00:09:21.066Z,99659.00
2023-04-10T00:12:07.419Z,99671.66
2023-04-10T00:14:53.714Z,99678.91
2023-04-10T00:17:40.606Z,99647.91
2023-04-10T00:20:27.800Z,99685.88
2023-04-10T00:23:14.247Z,99662.03
2023-04-10T00:26:01.286Z,99652.56
2023-04-10T00:28:47.852Z,99650.31
2023-04-10T00:31:34.393Z,99634.69
2023-04-10T00:34:21.102Z,99644.47
2023-04-10T00:37:07.256Z,99660.91
2023-04-10T00:39:54.066Z,99590.44
2023-04-10T00:42:40.909Z,99645.56
2023-04-10T00:45:27.692Z,99661.13
2023-04-10T00:48:15.286Z,99634.00
2023-04-10T00:51:04.592Z,99617.94
2023-04-10T00:53:52.113Z,99636.91
2023-04-10T00:56:39.042Z,99601.94
2023-04-10T00:59:26.204Z,99674.06
2023-04-10T01:02:13.306Z,99670.13
2023-04-10T01:04:59.880Z,99617.34
2023-04-10T01:08:12.296Z,99675.94
2023-04-10T01:11:07.176Z,99647.03
2023-04-10T01:13:59.238Z,99664.47
2023-04-10T01:16:58.515Z,99642.69
2023-04-10T01:20:09.235Z,99677.63
2023-04-10T01:23:23.325Z,99666.47
2023-04-10T01:26:17.209Z,99644.41
2023-04-10T01:29:09.494Z,99665.03
2023-04-10T01:32:04.950Z,99664.06
2023-04-10T01:34:55.517Z,99661.69
2023-04-10T01:37:44.278Z,99644.84
2023-04-10T01:40:32.803Z,99609.38
2023-04-10T01:43:21.510Z,99664.09
2023-04-10T01:46:12.693Z,99644.47
2023-04-10T01:49:02.071Z,99667.97
2023-04-10T01:51:49.972Z,99638.28
2023-04-10T01:54:36.785Z,99635.47
2023-04-10T01:57:24.460Z,99650.28
2023-04-10T02:00:17.369Z,99634.59
2023-04-10T02:03:04.052Z,99672.50
2023-04-10T02:06:15.855Z,99669.34
2023-04-10T02:09:15.941Z,99666.53
2023-04-10T02:12:06.815Z,99666.19
2023-04-10T02:14:56.215Z,99637.19
2023-04-10T02:17:42.956Z,99629.03
2023-04-10T02:20:29.249Z,99607.38
2023-04-10T02:23:17.422Z,99638.56
2023-04-10T02:26:10.212Z,99646.19
2023-04-10T02:28:56.624Z,99666.59
2023-04-10T02:31:43.617Z,99629.75
2023-04-10T02:34:30.388Z,99657.13
2023-04-10T02:37:18.675Z,99667.09
2023-04-10T02:40:06.203Z,99631.13
2023-04-10T02:43:02.356Z,99632.97
2023-04-10T02:45:49.038Z,99672.03
2023-04-10T02:48:42.254Z,99649.19
2023-04-10T02:51:28.725Z,99644.03
2023-04-10T02:54:15.332Z,99670.22
2023-04-10T02:57:03.620Z,99652.75
2023-04-10T02:59:51.312Z,99661.34
2023-04-10T03:02:38.647Z,99637.00
2023-04-10T03:05:34.825Z,99630.50
2023-04-10T03:08:21.317Z,99668.25
2023-04-10T03:11:09.002Z,99658.50
2023-04-10T03:13:55.537Z,99650.38
2023-04-10T03:16:42.018Z,99651.03
2023-04-10T03:19:28.356Z,99654.53
2023-04-10T03:22:14.785Z,99646.31
2023-04-10T03:25:01.509Z,99631.16
2023-04-10T03:27:49.883Z,99648.09
2023-04-10T03:30:37.291Z,99611.84
2023-04-10T03:33:24.295Z,99640.97
2023-04-10T03:36:11.534Z,99577.59
2023-04-10T03:38:58.461Z,99647.97
2023-04-10T03:41:45.046Z,99635.91
2023-04-10T03:44:31.491Z,99624.81
2023-04-10T03:47:18.168Z,99614.63
2023-04-10T03:50:09.436Z,99608.50
2023-04-10T03:53:04.841Z,99632.22
2023-04-10T03:55:54.400Z,99608.94
2023-04-10T03:58:42.299Z,99610.41
2023-04-10T04:01:29.878Z,99597.72
2023-04-10T04:04:23.879Z,99581.59
2023-04-10T04:07:11.174Z,99621.88
2023-04-10T04:10:20.542Z,99588.63
2023-04-10T04:13:23.507Z,99579.31
2023-04-10T04:16:24.136Z,99615.47
2023-04-10T04:19:17.016Z,99614.34
2023-04-10T04:22:21.945Z,99574.91
2023-04-10T04:25:18.233Z,99572.75
2023-04-10T04:28:39.663Z,99559.38
2023-04-10T04:31:40.994Z,99602.13
2023-04-10T04:34:47.339Z,99610.31
2023-04-10T04:37:59.740Z,99567.31
2023-04-10T04:41:20.385Z,99604.66
2023-04-10T04:44:44.147Z,99592.75
2023-04-10T04:48:02.698Z,99593.72
2023-04-10T04:51:08.428Z,99596.00
2023-04-10T04:53:59.090Z,99617.16
2023-04-10T04:57:04.365Z,99599.44
2023-04-10T05:00:14.997Z,99628.31
2023-04-10T05:03:16.338Z,99642.41
2023-04-10T05:06:18.725Z,99632.97
2023-04-10T05:09:40.759Z,99631.28
2023-04-10T05:12:38.102Z,99602.66
2023-04-10T05:15:43.919Z,99597.78
2023-04-10T05:18:39.022Z,99636.88
2023-04-10T05:21:41.428Z,99616.94
2023-04-10T05:24:47.073Z,99620.44
2023-04-10T05:27:36.789Z,99622.06
2023-04-10T05:30:46.013Z,99632.00
2023-04-10T05:33:50.873Z,99590.53
2023-04-10T05:36:58.327Z,99632.25
2023-04-10T05:40:05.034Z,99639.09
2023-04-10T05:43:11.669Z,99594.25
2023-04-10T05:46:36.796Z,99622.44
2023-04-10T05:49:49.078Z,99618.19
2023-04-10T05:52:52.727Z,99638.47
2023-04-10T05:56:02.317Z,99620.47
2023-04-10T05:59:03.163Z,99614.13
2023-04-10T06:02:08.118Z,99612.22
2023-04-10T06:04:54.886Z,99643.88
2023-04-10T06:07:41.960Z,99602.69
2023-04-10T06:10:29.946Z,99624.97
2023-04-10T06:13:17.166Z,99634.75
2023-04-10T06:16:04.529Z,99629.44
2023-04-10T06:18:54.315Z,99641.84
2023-04-10T06:21:40.886Z,99617.31
2023-04-10T06:24:27.302Z,99626.00
2023-04-10T06:27:15.722Z,99639.31
2023-04-10T06:30:02.634Z,99612.16
2023-04-10T06:32:49.629Z,99633.78
2023-04-10T06:35:36.542Z,99621.03
2023-04-10T06:38:23.430Z,99600.88
2023-04-10T06:41:10.419Z,99632.44
2023-04-10T06:43:56.725Z,99612.91
2023-04-10T06:46:43.031Z,99598.59
2023-04-10T06:49:29.412Z,99602.75
2023-04-10T06:52:16.781Z,99589.78
2023-04-10T06:55:03.499Z,99577.59
2023-04-10T06:57:49.883Z,99570.59
2023-04-10T07:00:36.132Z,99606.44
2023-04-10T07:03:22.855Z,99585.63
2023-04-10T07:06:11.305Z,99576.47
2023-04-10T07:08:57.798Z,99565.69
2023-04-10T07:11:44.355Z,99557.94
2023-04-10T07:14:32.473Z,99567.91
2023-04-10T07:17:18.983Z,99562.59
2023-04-10T07:20:06.085Z,99575.34
2023-04-10T07:22:52.587Z,99575.38
2023-04-10T07:25:38.731Z,99548.06
2023-04-10T07:28:25.305Z,99554.22
2023-04-10T07:31:12.156Z,99584.25
2023-04-10T07:33:58.733Z,99569.84
2023-04-10T07:36:46.144Z,99557.56
2023-04-10T07:39:33.097Z,99556.59
2023-04-10T07:42:19.652Z,99565.63
2023-04-10T07:45:07.075Z,99592.88
2023-04-10T07:47:53.734Z,99533.47
2023-04-10T07:50:40.521Z,99587.56
2023-04-10T07:53:27.214Z,99560.91
2023-04-10T07:56:18.653Z,99549.88
2023-04-10T07:59:05.989Z,99572.72
2023-04-10T08:01:52.742Z,99569.53
2023-04-10T08:04:39.499Z,99557.69
2023-04-10T08:07:25.954Z,99518.94
2023-04-10T08:10:12.172Z,99562.22
2023-04-10T08:12:58.748Z,99566.81
2023-04-10T08:15:44.962Z,99522.72
2023-04-10T08:18:31.213Z,99541.06
2023-04-10T08:21:19.153Z,99548.88
2023-04-10T08:24:05.728Z,99527.34
2023-04-10T08:26:52.185Z,99550.72
2023-04-10T08:29:38.628Z,99526.59
2023-04-10T08:32:26.636Z,99550.03
2023-04-10T08:35:13.236Z,99554.41
2023-04-10T08:38:12.636Z,99541.44
2023-04-10T08:41:00.411Z,99528.50
2023-04-10T08:43:47.061Z,99552.72
2023-04-10T08:46:36.421Z,99545.81
2023-04-10T08:49:31.510Z,99552.78
2023-04-10T08:52:31.159Z,99551.91
2023-04-10T08:55:18.439Z,99512.13
2023-04-10T08:58:04.902Z,99525.09
2023-04-10T09:00:51.648Z,99545.03
2023-04-10T09:03:38.433Z,99533.75
2023-04-10T09:06:24.877Z,99513.00
2023-04-10T09:09:11.589Z,99508.69
2023-04-10T09:12:01.047Z,99539.75
2023-04-10T09:14:53.127Z,99492.16
2023-04-10T09:18:03.837Z,99502.53
2023-04-10T09:20:51.537Z,99516.28
2023-04-10T09:23:38.268Z,99496.34
2023-04-10T09:26:29.203Z,99515.25
2023-04-10T09:29:16.997Z,99499.59
2023-04-10T09:32:03.352Z,99473.63
2023-04-10T09:34:58.523Z,99502.06
2023-04-10T09:37:46.739Z,99489.94
2023-04-10T09:40:32.959Z,99471.66
2023-04-10T09:43:20.517Z,99480.09
2023-04-10T09:46:06.944Z,99448.84
2023-04-10T09:49:01.320Z,99467.59
2023-04-10T09:51:49.438Z,99444.25
2023-04-10T09:54:37.777Z,99459.53
2023-04-10T09:57:26.188Z,99454.38
2023-04-10T10:00:14.263Z,99446.50
2023-04-10T10:03:04.921Z,99445.50
2023-04-10T10:05:52.068Z,99437.56
2023-04-10T10:08:38.504Z,99430.47
2023-04-10T10:11:26.460Z,99422.41
2023-04-10T10:14:17.593Z,99416.13
2023-04-10T10:17:12.263Z,99388.31
2023-04-10T10:20:09.073Z,99394.56
2023-04-10T10:22:58.553Z,99415.06
2023-04-10T10:25:46.308Z,99357.69
2023-04-10T10:28:34.665Z,99368.19
2023-04-10T10:31:23.665Z,99397.13
2023-04-10T10:34:11.041Z,99360.97
2023-04-10T10:36:58.236Z,99376.75
2023-04-10T10:40:02.155Z,99379.03
2023-04-10T10:43:16.627Z,99376.13
2023-04-10T10:46:43.285Z,99330.03
2023-04-10T10:49:51.344Z,99372.84
2023-04-10T10:52:37.632Z,99370.25
2023-04-10T10:55:36.890Z,99368.25
2023-04-10T10:58:53.312Z,99371.69
2023-04-10T11:02:13.495Z,99365.31
2023-04-10T11:05:00.238Z,99323.94
2023-04-10T11:07:59.240Z,99360.53
2023-04-10T11:11:07.674Z,99350.84
2023-04-10T11:13:56.306Z,99347.44
2023-04-10T11:16:47.074Z,99353.34
2023-04-10T11:20:02.299Z,99307.53
2023-04-10T11:23:09.075Z,99303.22
2023-04-10T11:25:55.865Z,99298.13
2023-04-10T11:28:42.635Z,99289.88
2023-04-10T11:31:29.582Z,99315.25
2023-04-10T11:34:16.195Z,99316.28
2023-04-10T11:37:03.070Z,99323.69
2023-04-10T11:40:02.568Z,99276.06
2023-04-10T11:42:48.903Z,99304.00
2023-04-10T11:45:35.513Z,99296.50
2023-04-10T11:48:21.965Z,99294.06
2023-04-10T11:51:10.775Z,99273.63
2023-04-10T11:54:11.309Z,99287.13
2023-04-10T11:57:12.975Z,99241.53
2023-04-10T11:59:59.198Z,99256.81
2023-04-10T12:02:55.651Z,99226.09
2023-04-10T12:05:48.497Z,99235.00
2023-04-10T12:08:37.463Z,99239.41
2023-04-10T12:11:25.531Z,99215.97
2023-04-10T12:14:11.558Z,99240.56
2023-04-10T12:16:59.206Z,99251.59
2023-04-10T12:19:45.530Z,99247.00
2023-04-10T12:22:31.687Z,99198.91
2023-04-10T12:25:21.399Z,99239.81
2023-04-10T12:28:08.060Z,99225.19
2023-04-10T12:30:55.040Z,99220.84
2023-04-10T12:33:45.459Z,99241.22
2023-04-10T12:36:34.202Z,99226.84
2023-04-10T12:39:24.869Z,99191.06
2023-04-10T12:42:20.941Z,99222.56
2023-04-10T12:45:09.935Z,99193.06
2023-04-10T12:47:56.424Z,99217.56
2023-04-10T12:50:50.008Z,99209.38
2023-04-10T12:53:46.620Z,99175.84
2023-04-10T12:56:43.919Z,99189.75
2023-04-10T12:59:31.263Z,99193.41
2023-04-10T13:02:19.756Z,99173.88
2023-04-10T13:05:08.062Z,99189.66
2023-04-10T13:07:54.295Z,99144.53
2023-04-10T13:10:42.190Z,99152.00
2023-04-10T13:13:31.074Z,99182.78
2023-04-10T13:16:17.660Z,99160.00
2023-04-10T13:19:04.224Z,99155.66
2023-04-10T13:21:51.925Z,99153.09
2023-04-10T13:24:38.596Z,99182.84
2023-04-10T13:27:24.870Z,99160.06
2023-04-10T13:30:11.447Z,99152.59
2023-04-10T13:32:57.790Z,99160.91
2023-04-10T13:35:44.073Z,99162.75
2023-04-10T13:38:31.379Z,99129.16
2023-04-10T13:41:17.826Z,99116.50
2023-04-10T13:44:04.098Z,99147.38
2023-04-10T13:46:52.038Z,99108.81
2023-04-10T13:49:38.631Z,99090.72
2023-04-10T13:52:24.788Z,99090.34
2023-04-10T13:55:11.614Z,99045.59
2023-04-10T13:57:57.839Z,99111.34
2023-04-10T14:00:44.628Z,99101.59
2023-04-10T14:03:31.351Z,99071.88
2023-04-10T14:06:17.997Z,99107.34
2023-04-10T14:09:04.399Z,99114.47
2023-04-10T14:11:50.844Z,99079.44
2023-04-10T14:14:37.138Z,99079.72
2023-04-10T14:17:23.744Z,99051.56
2023-04-10T14:20:13.301Z,99061.06
2023-04-10T14:22:59.664Z,99059.78
2023-04-10T14:25:46.810Z,99087.22
2023-04-10T14:28:33.569Z,99083.56
2023-04-10T14:31:20.239Z,99019.50
2023-04-10T14:34:06.658Z,99059.41
2023-04-10T14:36:56.159Z,99059.22
2023-04-10T14:39:42.399Z,99083.13
2023-04-10T14:42:28.963Z,99063.16
2023-04-10T14:45:15.109Z,99069.41
2023-04-10T14:48:02.537Z,99064.75
2023-04-10T14:50:49.630Z,99065.69
2023-04-10T14:53:35.732Z,99033.75
2023-04-10T14:56:22.348Z,99028.97
2023-04-10T14:59:08.623Z,99049.88
2023-04-10T15:01:54.956Z,99049.22
2023-04-10T15:04:41.323Z,99042.91
2023-04-10T15:07:28.405Z,99036.88
2023-04-10T15:10:15.298Z,99023.91
2023-04-10T15:13:01.937Z,99025.28
2023-04-10T15:15:49.188Z,99001.94
2023-04-10T15:18:35.606Z,98996.06
2023-04-10T15:21:22.684Z,98998.78
2023-04-10T15:24:09.252Z,99005.72
2023-04-10T15:26:56.237Z,99013.28
2023-04-10T15:29:43.208Z,99017.63
2023-04-10T15:32:30.827Z,99004.22
2023-04-10T15:35:17.325Z,98995.34
2023-04-10T15:38:06.572Z,98981.00
2023-04-10T15:40:56.822Z,98988.81
2023-04-10T15:43:45.388Z,98966.41
2023-04-10T15:46:33.225Z,98988.41
2023-04-10T15:49:26.415Z,98994.88
2023-04-10T15:52:23.385Z,98986.78
2023-04-10T15:55:09.777Z,98966.81
2023-04-10T15:57:56.400Z,98981.31
2023-04-10T16:00:42.673Z,98967.50
2023-04-10T16:03:30.394Z,98946.13
2023-04-10T16:06:17.251Z,98966.75
2023-04-10T16:09:12.366Z,98942.66
2023-04-10T16:12:08.834Z,98926.59
2023-04-10T16:14:55.581Z,98901.59
2023-04-10T16:17:41.670Z,98934.16
2023-04-10T16:20:28.020Z,98968.56
2023-04-10T16:23:14.145Z,98942.19
2023-04-10T16:26:00.673Z,98963.78
2023-04-10T16:28:47.276Z,98912.28
2023-04-10T16:31:33.517Z,98903.59
2023-04-10T16:34:19.884Z,98926.06
2023-04-10T16:37:06.197Z,98918.50
2023-04-10T16:39:52.726Z,98918.22
2023-04-10T16:42:39.930Z,98898.94
2023-04-10T16:45:26.771Z,98897.78
2023-04-10T16:48:13.194Z,98881.00
2023-04-10T16:51:05.680Z,98872.16
2023-04-10T16:53:52.026Z,98867.13
2023-04-10T16:56:38.574Z,98889.81
2023-04-10T16:59:24.804Z,98878.25
2023-04-10T17:02:11.176Z,98901.06
2023-04-10T17:04:58.717Z,98898.34
2023-04-10T17:07:45.344Z,98888.13
2023-04-10T17:10:32.056Z,98868.94
2023-04-10T17:13:19.850Z,98913.00
2023-04-10T17:16:08.398Z,98906.44
2023-04-10T17:18:54.877Z,98903.53
2023-04-10T17:21:41.317Z,98897.63
2023-04-10T17:24:27.832Z,98889.31
2023-04-10T17:27:14.565Z,98881.13
2023-04-10T17:30:01.189Z,98891.06
2023-04-10T17:32:49.244Z,98856.63
2023-04-10T17:35:35.669Z,98845.09
2023-04-10T17:38:22.034Z,98876.00
2023-04-10T17:41:10.159Z,98876.19
2023-04-10T17:43:56.856Z,98870.97
2023-04-10T17:46:43.080Z,98874.09
2023-04-10T17:49:30.246Z,98865.97
2023-04-10T17:52:16.566Z,98865.81
2023-04-10T17:55:03.195Z,98827.00
2023-04-10T17:57:49.947Z,98841.81
2023-04-10T18:00:36.208Z,98859.28
2023-04-10T18:03:22.743Z,98832.84
2023-04-10T18:06:09.321Z,98824.38
2023-04-10T18:08:57.189Z,98814.97
2023-04-10T18:11:43.623Z,98812.63
2023-04-10T18:14:30.160Z,98761.22
2023-04-10T18:17:16.248Z,98784.47
2023-04-10T18:20:02.448Z,98791.72
2023-04-10T18:22:48.810Z,98804.69
2023-04-10T18:25:35.263Z,98824.81
2023-04-10T18:28:25.188Z,98859.72
2023-04-10T18:31:14.769Z,98820.16
2023-04-10T18:34:07.668Z,98858.19
2023-04-10T18:36:55.650Z,98862.50
2023-04-10T18:39:42.042Z,98881.47
2023-04-10T18:42:28.583Z,98870.28
2023-04-10T18:45:14.859Z,98865.91
2023-04-10T18:48:01.766Z,98874.28
2023-04-10T18:50:52.157Z,98874.59
2023-04-10T18:53:38.723Z,98877.28
2023-04-10T18:56:25.307Z,98892.78
2023-04-10T18:59:11.949Z,98892.34
2023-04-10T19:01:58.128Z,98887.84
2023-04-10T19:04:44.887Z,98880.28
2023-04-10T19:07:32.462Z,98892.50
2023-04-10T19:10:18.814Z,98888.47
2023-04-10T19:13:05.330Z,98853.78
2023-04-10T19:15:51.815Z,98861.72
2023-04-10T19:18:38.344Z,98859.09
2023-04-10T19:21:24.738Z,98865.47
2023-04-10T19:24:11.553Z,98884.16
2023-04-10T19:26:58.395Z,98875.56
2023-04-10T19:29:44.908Z,98879.38
2023-04-10T19:32:31.149Z,98893.09
2023-04-10T19:35:17.871Z,98900.84
2023-04-10T19:38:04.131Z,98892.28
2023-04-10T19:40:50.464Z,98920.78
2023-04-10T19:43:36.844Z,98888.47
2023-04-10T19:46:23.817Z,98902.16
2023-04-10T19:49:10.498Z,98898.34
2023-04-10T19:51:57.339Z,98899.31
2023-04-10T19:54:43.560Z,98892.69
2023-04-10T19:57:30.191Z,98875.44
2023-04-10T20:00:17.166Z,98877.22
2023-04-10T20:03:03.848Z,98871.72
2023-04-10T20:05:50.279Z,98881.13
2023-04-10T20:08:36.964Z,98874.09
2023-04-10T20:11:30.263Z,98875.00
2023-04-10T20:14:16.465Z,98880.34
2023-04-10T20:17:02.685Z,98878.41
2023-04-10T20:19:49.283Z,98871.59
2023-04-10T20:22:35.612Z,98866.53
2023-04-10T20:25:22.118Z,98852.00
2023-04-10T20:28:08.407Z,98845.13
2023-04-10T20:30:54.761Z,98827.94
2023-04-10T20:33:40.916Z,98837.06
2023-04-10T20:36:27.201Z,98854.47
2023-04-10T20:39:13.743Z,98853.19
2023-04-10T20:42:00.241Z,98839.38
2023-04-10T20:44:46.948Z,98866.94
2023-04-10T20:47:33.182Z,98858.56
2023-04-10T20:50:19.858Z,98855.22
2023-04-10T20:53:06.208Z,98851.63
2023-04-10T20:55:55.534Z,98843.97
2023-04-10T20:58:41.770Z,98838.72
2023-04-10T21:01:28.717Z,98772.72
2023-04-10T21:04:15.140Z,98787.50
2023-04-10T21:07:01.549Z,98787.38
2023-04-10T21:09:47.866Z,98814.81
2023-04-10T21:12:34.126Z,98737.66
2023-04-10T21:15:20.639Z,98816.69
2023-04-10T21:18:07.134Z,98799.69
2023-04-10T21:20:53.377Z,98818.00
2023-04-10T21:23:39.618Z,98803.31
2023-04-10T21:26:26.072Z,98811.75
2023-04-10T21:29:12.277Z,98794.66
2023-04-10T21:31:58.542Z,98791.28
2023-04-10T21:34:45.323Z,98820.78
2023-04-10T21:37:31.527Z,98775.28
2023-04-10T21:40:18.036Z,98808.84
2023-04-10T21:43:04.791Z,98826.19
2023-04-10T21:45:51.425Z,98813.22
2023-04-10T21:48:37.736Z,98774.66
2023-04-10T21:51:26.730Z,98781.50
2023-04-10T21:54:13.376Z,98789.84
2023-04-10T21:56:59.549Z,98778.63
2023-04-10T21:59:45.993Z,98788.81
2023-04-10T22:02:32.328Z,98767.47
2023-04-10T22:05:19.028Z,98731.34
2023-04-10T22:08:05.365Z,98751.78
2023-04-10T22:10:52.338Z,98753.31
2023-04-10T22:13:38.869Z,98722.81
2023-04-10T22:16:25.308Z,98723.38
2023-04-10T22:19:11.529Z,98742.03
2023-04-10T22:21:58.042Z,98741.88
2023-04-10T22:24:44.356Z,98715.63
2023-04-10T22:27:30.790Z,98695.72
2023-04-10T22:30:17.385Z,98629.56
2023-04-10T22:33:04.063Z,98650.56
2023-04-10T22:35:53.592Z,98680.53
2023-04-10T22:38:39.889Z,98657.56
2023-04-10T22:41:26.481Z,98630.22
2023-04-10T22:44:12.668Z,98655.00
2023-04-10T22:46:58.830Z,98649.06
2023-04-10T22:49:45.616Z,98643.84
2023-04-10T22:52:31.761Z,98647.88
2023-04-10T22:55:18.340Z,98646.97
2023-04-10T22:58:05.097Z,98599.81
2023-04-10T23:00:51.464Z,98665.06
2023-04-10T23:03:38.166Z,98674.38
2023-04-10T23:06:24.757Z,98695.81
2023-04-10T23:09:14.140Z,98664.75
2023-04-10T23:12:01.564Z,98636.19
2023-04-10T23:14:47.962Z,98643.63
2023-04-10T23:17:34.892Z,98656.16
2023-04-10T23:20:21.118Z,98611.13
2023-04-10T23:23:07.441Z,98672.75
2023-04-10T23:25:58.883Z,98689.19
2023-04-10T23:28:45.606Z,98676.34
2023-04-10T23:31:31.925Z,98661.66
2023-04-10T23:34:18.844Z,98658.91
2023-04-10T23:37:05.363Z,98608.47
2023-04-10T23:39:51.394Z,98678.09
2023-04-10T23:42:37.879Z,98676.56
2023-04-10T23:45:24.784Z,98651.84
2023-04-10T23:48:11.616Z,98648.78
2023-04-10T23:51:06.522Z,98668.47
2023-04-10T23:53:52.536Z,98663.66
2023-04-10T23:56:39.331Z,98639.91
2023-04-10T23:59:25.524Z,98615.91
